createdAt,value
2023-05-15T00:00:34.450Z,10.70
2023-05-15T00:03:02.697Z,11.30
2023-05-15T00:05:30.759Z,8.50
2023-05-15T00:07:58.520Z,9.30
2023-05-15T00:10:26.345Z,8.60
2023-05-15T00:12:55.330Z,8.30
2023-05-15T00:15:23.657Z,9.60
2023-05-15T00:17:51.835Z,12.50
2023-05-15T00:20:20.519Z,12.30
2023-05-15T00:22:48.363Z,10.00
2023-05-15T00:25:16.368Z,9.80
2023-05-15T00:27:44.397Z,13.00
2023-05-15T00:30:13.496Z,10.60
2023-05-15T00:32:41.385Z,9.80
2023-05-15T00:35:09.438Z,11.30
2023-05-15T00:37:37.397Z,9.50
2023-05-15T00:40:06.544Z,9.10
2023-05-15T00:42:35.485Z,12.10
2023-05-15T00:45:04.009Z,8.60
2023-05-15T00:47:32.229Z,7.90
2023-05-15T00:50:00.235Z,8.10
2023-05-15T00:52:28.043Z,8.60
2023-05-15T00:54:55.728Z,8.50
2023-05-15T00:57:24.178Z,8.50
2023-05-15T00:59:52.240Z,8.90
2023-05-15T01:02:20.113Z,10.10
2023-05-15T01:04:49.481Z,9.80
2023-05-15T01:07:18.102Z,10.90
2023-05-15T01:09:45.868Z,8.70
2023-05-15T01:12:15.446Z,10.20
2023-05-15T01:14:43.350Z,10.60
2023-05-15T01:17:11.108Z,9.00
2023-05-15T01:19:40.204Z,10.60
2023-05-15T01:22:34.990Z,12.10
2023-05-15T01:25:14.085Z,12.20
2023-05-15T01:27:51.409Z,9.30
2023-05-15T01:30:34.247Z,11.60
2023-05-15T01:33:04.032Z,9.20
2023-05-15T01:36:16.472Z,10.70
2023-05-15T01:39:00.646Z,9.90
2023-05-15T01:41:35.367Z,13.70
2023-05-15T01:44:09.063Z,8.10
2023-05-15T01:46:39.419Z,11.20
2023-05-15T01:49:07.918Z,12.20
2023-05-15T01:51:35.909Z,13.90
2023-05-15T01:54:03.767Z,11.90
2023-05-15T01:56:31.549Z,13.50
2023-05-15T01:59:00.231Z,10.50
2023-05-15T02:01:30.079Z,12.70
2023-05-15T02:03:57.849Z,15.80
2023-05-15T02:06:25.592Z,10.40
2023-05-15T02:08:54.565Z,10.00
2023-05-15T02:11:22.108Z,9.80
2023-05-15T02:13:49.751Z,11.60
2023-05-15T02:16:17.421Z,11.90
2023-05-15T02:18:45.627Z,10.20
2023-05-15T02:21:15.736Z,12.00
2023-05-15T02:23:43.776Z,11.80
2023-05-15T02:26:49.607Z,11.50
2023-05-15T02:29:50.083Z,11.90
2023-05-15T02:32:39.336Z,9.30
2023-05-15T02:35:26.306Z,13.70
2023-05-15T02:37:55.380Z,11.50
2023-05-15T02:40:23.887Z,10.80
2023-05-15T02:42:52.606Z,11.70
2023-05-15T02:45:21.596Z,11.20
2023-05-15T02:47:51.340Z,10.80
2023-05-15T02:50:19.418Z,14.20
2023-05-15T02:52:47.112Z,9.80
2023-05-15T02:55:15.175Z,13.90
2023-05-15T02:57:42.766Z,13.80
2023-05-15T03:00:11.742Z,14.30
2023-05-15T03:02:39.532Z,16.30
2023-05-15T03:05:08.402Z,12.30
2023-05-15T03:07:36.817Z,11.90
2023-05-15T03:10:05.348Z,12.60
2023-05-15T03:12:33.647Z,11.50
2023-05-15T03:15:01.557Z,10.00
2023-05-15T03:17:29.828Z,12.20
2023-05-15T03:19:57.997Z,14.50
2023-05-15T03:22:25.803Z,10.90
2023-05-15T03:24:53.775Z,11.50
2023-05-15T03:27:21.429Z,11.40
2023-05-15T03:29:50.766Z,11.50
2023-05-15T03:32:18.460Z,8.30
2023-05-15T03:34:46.289Z,10.50
2023-05-15T03:37:13.914Z,8.40
2023-05-15T03:39:41.556Z,9.70
2023-05-15T03:42:09.269Z,14.90
2023-05-15T03:44:37.232Z,12.10
2023-05-15T03:47:05.159Z,9.70
2023-05-15T03:49:33.517Z,7.00
2023-05-15T03:52:01.191Z,13.70
2023-05-15T03:54:29.250Z,11.20
2023-05-15T03:56:57.305Z,8.80
2023-05-15T03:59:24.922Z,8.90
2023-05-15T04:02:03.560Z,7.70
2023-05-15T04:04:40.081Z,12.40
2023-05-15T04:07:07.798Z,11.70
2023-05-15T04:09:35.165Z,5.90
2023-05-15T04:12:02.786Z,12.60
2023-05-15T04:14:30.413Z,11.10
2023-05-15T04:16:57.867Z,13.10
2023-05-15T04:19:25.491Z,7.10
2023-05-15T04:21:53.292Z,9.30
2023-05-15T04:24:20.830Z,10.30
2023-05-15T04:26:48.380Z,9.10
2023-05-15T04:29:16.024Z,8.70
2023-05-15T04:31:43.437Z,9.00
2023-05-15T04:34:11.107Z,13.70
2023-05-15T04:36:40.596Z,9.20
2023-05-15T04:39:08.291Z,9.10
2023-05-15T04:41:35.883Z,8.20
2023-05-15T04:44:03.569Z,6.90
2023-05-15T04:46:34.455Z,7.80
2023-05-15T04:49:02.071Z,9.00
2023-05-15T04:51:29.640Z,10.40
2023-05-15T04:53:57.112Z,11.70
2023-05-15T04:56:24.473Z,12.60
2023-05-15T04:58:51.821Z,8.40
2023-05-15T05:01:19.196Z,8.20
2023-05-15T05:03:46.882Z,6.60
2023-05-15T05:06:14.318Z,10.60
2023-05-15T05:08:42.146Z,8.90
2023-05-15T05:11:09.524Z,6.70
2023-05-15T05:13:36.970Z,10.50
2023-05-15T05:16:05.022Z,8.10
2023-05-15T05:18:32.524Z,8.40
2023-05-15T05:21:01.260Z,7.10
2023-05-15T05:23:29.864Z,10.80
2023-05-15T05:25:57.243Z,10.00
2023-05-15T05:28:24.615Z,8.50
2023-05-15T05:30:52.208Z,10.30
2023-05-15T05:33:19.771Z,11.60
2023-05-15T05:35:47.249Z,12.10
2023-05-15T05:38:15.191Z,8.60
2023-05-15T05:40:42.594Z,9.70
2023-05-15T05:43:10.282Z,13.20
2023-05-15T05:45:37.669Z,13.60
2023-05-15T05:48:05.224Z,9.60
2023-05-15T05:50:33.092Z,7.70
2023-05-15T05:53:00.525Z,6.50
2023-05-15T05:55:27.992Z,8.90
2023-05-15T05:57:55.528Z,7.00
2023-05-15T06:00:24.638Z,7.10
2023-05-15T06:02:57.270Z,8.40
2023-05-15T06:05:25.972Z,6.60
2023-05-15T06:07:54.453Z,6.30
2023-05-15T06:10:22.362Z,6.00
2023-05-15T06:12:50.174Z,9.40
2023-05-15T06:15:17.529Z,6.50
2023-05-15T06:17:45.320Z,5.30
2023-05-15T06:20:12.955Z,5.40
2023-05-15T06:22:40.752Z,9.50
2023-05-15T06:25:13.337Z,6.00
2023-05-15T06:27:41.207Z,6.40
2023-05-15T06:30:09.597Z,7.40
2023-05-15T06:32:37.648Z,10.30
2023-05-15T06:35:06.046Z,9.00
2023-05-15T06:37:33.535Z,8.40
2023-05-15T06:40:01.074Z,8.70
2023-05-15T06:42:28.950Z,6.10
2023-05-15T06:44:57.510Z,5.20
2023-05-15T06:47:25.273Z,6.90
2023-05-15T06:49:53.999Z,6.30
2023-05-15T06:52:21.427Z,9.60
2023-05-15T06:54:48.865Z,8.90
2023-05-15T06:57:16.416Z,7.00
2023-05-15T06:59:43.981Z,6.20
2023-05-15T07:02:11.328Z,7.00
2023-05-15T07:04:38.862Z,7.10
2023-05-15T07:07:06.873Z,6.90
2023-05-15T07:09:35.129Z,7.60
2023-05-15T07:12:03.584Z,6.20
2023-05-15T07:14:31.316Z,6.20
2023-05-15T07:16:58.709Z,7.30
2023-05-15T07:19:26.312Z,9.00
2023-05-15T07:21:53.707Z,4.90
2023-05-15T07:24:21.025Z,7.40
2023-05-15T07:26:58.056Z,5.90
2023-05-15T07:29:26.729Z,8.60
2023-05-15T07:31:54.155Z,6.50
2023-05-15T07:34:21.453Z,5.80
2023-05-15T07:36:48.985Z,6.30
2023-05-15T07:39:16.784Z,6.40
2023-05-15T07:41:46.669Z,7.20
2023-05-15T07:44:14.036Z,10.50
2023-05-15T07:46:41.481Z,5.40
2023-05-15T07:49:10.153Z,4.80
2023-05-15T07:51:37.542Z,5.90
2023-05-15T07:54:05.032Z,4.40
2023-05-15T07:56:32.805Z,4.80
2023-05-15T07:59:00.271Z,6.10
2023-05-15T08:01:29.086Z,6.90
2023-05-15T08:03:58.176Z,8.10
2023-05-15T08:06:25.722Z,6.30
2023-05-15T08:08:53.144Z,5.80
2023-05-15T08:11:21.633Z,5.40
2023-05-15T08:13:49.133Z,6.80
2023-05-15T08:16:16.699Z,4.40
2023-05-15T08:18:44.108Z,6.40
2023-05-15T08:21:11.520Z,4.40
2023-05-15T08:23:38.930Z,4.60
2023-05-15T08:26:06.289Z,4.80
2023-05-15T08:28:33.865Z,5.50
2023-05-15T08:31:01.335Z,5.10
2023-05-15T08:33:29.328Z,5.70
2023-05-15T08:35:57.946Z,5.00
2023-05-15T08:38:25.384Z,4.70
2023-05-15T08:40:53.040Z,6.90
2023-05-15T08:43:20.915Z,4.40
2023-05-15T08:45:49.107Z,5.10
2023-05-15T08:48:20.077Z,5.00
2023-05-15T08:50:47.634Z,4.30
2023-05-15T08:53:15.301Z,6.60
2023-05-15T08:55:42.710Z,5.40
2023-05-15T08:58:10.099Z,7.20
2023-05-15T09:00:37.598Z,3.90
2023-05-15T09:03:05.386Z,7.20
2023-05-15T09:05:33.983Z,4.40
2023-05-15T09:08:02.510Z,8.70
2023-05-15T09:10:30.253Z,4.90
2023-05-15T09:12:57.927Z,5.80
2023-05-15T09:15:25.821Z,5.40
2023-05-15T09:17:53.401Z,5.60
2023-05-15T09:20:31.779Z,4.60
2023-05-15T09:23:00.142Z,6.20
2023-05-15T09:25:42.386Z,5.00
2023-05-15T09:28:11.460Z,6.00
2023-05-15T09:30:39.354Z,8.40
2023-05-15T09:33:06.862Z,6.20
2023-05-15T09:35:38.297Z,5.60
2023-05-15T09:40:38.787Z,6.30
2023-05-15T09:43:06.221Z,5.80
2023-05-15T09:45:34.220Z,6.10
2023-05-15T09:48:04.883Z,4.80
2023-05-15T09:50:37.544Z,6.40
2023-05-15T09:53:05.222Z,5.70
2023-05-15T09:55:33.852Z,4.90
2023-05-15T09:58:06.274Z,5.70
2023-05-15T10:00:34.953Z,5.70
2023-05-15T10:03:03.468Z,5.90
2023-05-15T10:05:42.545Z,4.60
2023-05-15T10:08:11.436Z,7.30
2023-05-15T10:10:39.353Z,6.90
2023-05-15T10:13:07.474Z,4.00
2023-05-15T10:15:35.308Z,5.40
2023-05-15T10:18:03.854Z,4.20
2023-05-15T10:20:39.820Z,4.40
2023-05-15T10:23:07.274Z,4.60
2023-05-15T10:25:45.222Z,5.80
2023-05-15T10:28:12.673Z,4.70
2023-05-15T10:30:40.649Z,6.60
2023-05-15T10:33:09.223Z,7.20
2023-05-15T10:35:38.997Z,5.90
2023-05-15T10:38:06.874Z,5.00
2023-05-15T10:40:38.562Z,7.30
2023-05-15T10:43:05.919Z,3.90
2023-05-15T10:45:33.865Z,6.90
2023-05-15T10:48:02.133Z,3.80
2023-05-15T10:50:30.279Z,6.10
2023-05-15T10:52:57.711Z,6.80
2023-05-15T10:55:25.114Z,4.40
2023-05-15T10:57:56.044Z,4.80
2023-05-15T11:00:23.933Z,6.40
2023-05-15T11:02:56.746Z,3.90
2023-05-15T11:05:25.582Z,3.70
2023-05-15T11:08:15.234Z,5.00
2023-05-15T11:10:42.887Z,5.70
2023-05-15T11:13:11.703Z,4.80
2023-05-15T11:15:46.585Z,4.00
2023-05-15T11:18:14.384Z,8.10
2023-05-15T11:20:51.741Z,6.10
2023-05-15T11:23:22.872Z,6.60
2023-05-15T11:25:54.795Z,6.90
2023-05-15T11:28:23.620Z,5.00
2023-05-15T11:30:52.254Z,5.80
2023-05-15T11:33:20.168Z,7.10
2023-05-15T11:35:47.811Z,4.40
2023-05-15T11:38:24.428Z,5.40
2023-05-15T11:40:55.493Z,5.10
2023-05-15T11:43:33.226Z,7.80
2023-05-15T11:46:04.642Z,8.20
2023-05-15T11:48:33.642Z,4.90
2023-05-15T11:51:01.559Z,6.00
2023-05-15T11:53:30.079Z,7.10
2023-05-15T11:55:57.579Z,4.50
2023-05-15T11:58:26.736Z,4.50
2023-05-15T12:00:54.436Z,4.40
2023-05-15T12:03:24.627Z,4.40
2023-05-15T12:05:59.544Z,4.80
2023-05-15T12:08:35.088Z,8.70
2023-05-15T12:11:03.286Z,5.00
2023-05-15T12:13:32.037Z,5.40
2023-05-15T12:16:00.973Z,6.20
2023-05-15T12:18:30.926Z,3.80
2023-05-15T12:20:58.504Z,4.60
2023-05-15T12:23:26.697Z,5.20
2023-05-15T12:25:58.264Z,6.40
2023-05-15T12:28:26.243Z,4.10
2023-05-15T12:30:54.042Z,5.50
2023-05-15T12:33:23.103Z,6.20
2023-05-15T12:35:54.954Z,4.50
2023-05-15T12:38:24.662Z,5.60
2023-05-15T12:40:55.251Z,5.00
2023-05-15T12:43:25.892Z,3.90
2023-05-15T12:45:54.302Z,6.30
2023-05-15T12:48:22.121Z,5.60
2023-05-15T12:50:49.937Z,5.20
2023-05-15T12:53:18.071Z,7.80
2023-05-15T12:55:46.615Z,6.90
2023-05-15T12:58:15.745Z,8.10
2023-05-15T13:00:45.713Z,4.90
2023-05-15T13:03:13.661Z,5.00
2023-05-15T13:05:45.167Z,6.20
2023-05-15T13:08:17.172Z,5.00
2023-05-15T13:10:45.199Z,4.60
2023-05-15T13:13:13.027Z,6.40
2023-05-15T13:15:43.144Z,6.60
2023-05-15T13:18:11.930Z,5.30
2023-05-15T13:20:41.456Z,5.10
2023-05-15T13:23:10.192Z,5.60
2023-05-15T13:25:37.703Z,6.20
2023-05-15T13:28:06.063Z,4.80
2023-05-15T13:30:34.240Z,5.40
2023-05-15T13:33:02.242Z,4.70
2023-05-15T13:35:29.929Z,7.60
2023-05-15T13:37:57.817Z,7.90
2023-05-15T13:40:25.832Z,6.60
2023-05-15T13:42:53.611Z,8.10
2023-05-15T13:45:20.988Z,4.70
2023-05-15T13:47:48.652Z,4.10
2023-05-15T13:50:16.362Z,4.90
2023-05-15T13:52:44.758Z,4.30
2023-05-15T13:55:12.324Z,7.80
2023-05-15T13:57:40.789Z,9.50
2023-05-15T14:00:12.821Z,7.80
2023-05-15T14:02:41.418Z,9.80
2023-05-15T14:05:12.741Z,9.20
2023-05-15T14:10:08.514Z,5.40
2023-05-15T14:12:36.939Z,8.00
2023-05-15T14:15:04.981Z,5.60
2023-05-15T14:17:32.890Z,5.90
2023-05-15T14:20:00.618Z,6.30
2023-05-15T14:22:28.115Z,5.40
2023-05-15T14:24:55.480Z,5.20
2023-05-15T14:27:23.018Z,4.30
2023-05-15T14:29:51.137Z,6.60
2023-05-15T14:32:18.678Z,4.30
2023-05-15T14:34:46.452Z,5.80
2023-05-15T14:37:14.230Z,5.40
2023-05-15T14:39:42.059Z,7.40
2023-05-15T14:42:10.391Z,5.10
2023-05-15T14:44:38.108Z,5.80
2023-05-15T14:47:09.953Z,7.30
2023-05-15T14:49:37.748Z,5.80
2023-05-15T14:52:09.036Z,5.00
2023-05-15T14:54:37.449Z,4.90
2023-05-15T14:57:05.284Z,4.00
2023-05-15T14:59:33.066Z,7.10
2023-05-15T15:02:00.853Z,4.00
2023-05-15T15:04:30.186Z,6.10
2023-05-15T15:06:57.673Z,6.00
2023-05-15T15:09:26.955Z,5.70
2023-05-15T15:11:55.875Z,6.00
2023-05-15T15:14:23.513Z,5.20
2023-05-15T15:16:50.907Z,5.20
2023-05-15T15:19:20.124Z,5.90
2023-05-15T15:21:48.461Z,7.10
2023-05-15T15:24:17.372Z,4.50
2023-05-15T15:26:45.026Z,4.30
2023-05-15T15:29:12.463Z,4.20
2023-05-15T15:31:39.921Z,3.80
2023-05-15T15:34:08.782Z,4.00
2023-05-15T15:36:41.273Z,4.20
2023-05-15T15:39:11.256Z,8.60
2023-05-15T15:41:39.277Z,9.10
2023-05-15T15:44:06.997Z,9.10
2023-05-15T15:46:34.499Z,8.10
2023-05-15T15:49:03.919Z,7.20
2023-05-15T15:51:32.813Z,4.70
2023-05-15T15:54:00.204Z,4.10
2023-05-15T15:56:27.939Z,4.10
2023-05-15T15:58:55.290Z,5.30
2023-05-15T16:01:23.457Z,6.00
2023-05-15T16:03:51.197Z,4.20
2023-05-15T16:06:18.957Z,7.80
2023-05-15T16:08:46.923Z,5.90
2023-05-15T16:11:16.076Z,3.90
2023-05-15T16:13:44.837Z,4.80
2023-05-15T16:16:12.827Z,5.30
2023-05-15T16:18:40.740Z,6.70
2023-05-15T16:21:08.359Z,6.70
2023-05-15T16:23:36.465Z,11.90
2023-05-15T16:26:04.641Z,6.90
2023-05-15T16:28:32.361Z,4.80
2023-05-15T16:30:59.966Z,6.10
2023-05-15T16:33:28.494Z,8.50
2023-05-15T16:35:56.489Z,7.40
2023-05-15T16:38:24.304Z,9.70
2023-05-15T16:40:51.767Z,4.60
2023-05-15T16:43:21.544Z,4.00
2023-05-15T16:45:48.924Z,6.00
2023-05-15T16:48:16.387Z,5.10
2023-05-15T16:50:44.026Z,4.90
2023-05-15T16:53:11.967Z,7.30
2023-05-15T16:55:39.734Z,6.10
2023-05-15T16:58:08.333Z,5.50
2023-05-15T17:00:35.952Z,6.00
2023-05-15T17:03:05.393Z,11.90
2023-05-15T17:05:33.584Z,9.70
2023-05-15T17:08:01.340Z,11.40
2023-05-15T17:10:28.953Z,8.80
2023-05-15T17:12:56.425Z,9.70
2023-05-15T17:15:24.638Z,8.50
2023-05-15T17:17:52.416Z,9.70
2023-05-15T17:20:20.007Z,7.50
2023-05-15T17:22:47.590Z,9.10
2023-05-15T17:25:15.312Z,11.20
2023-05-15T17:27:43.233Z,12.10
2023-05-15T17:30:11.571Z,10.00
2023-05-15T17:32:39.727Z,8.50
2023-05-15T17:35:08.197Z,7.10
2023-05-15T17:37:36.509Z,11.10
2023-05-15T17:40:05.537Z,8.80
2023-05-15T17:42:34.131Z,7.80
2023-05-15T17:45:02.252Z,6.00
2023-05-15T17:47:30.365Z,9.20
2023-05-15T17:49:57.874Z,5.40
2023-05-15T17:52:25.278Z,6.10
2023-05-15T17:54:52.793Z,7.40
2023-05-15T17:57:20.755Z,8.00
2023-05-15T17:59:48.343Z,5.50
2023-05-15T18:02:16.021Z,10.40
2023-05-15T18:04:44.034Z,8.00
2023-05-15T18:07:11.779Z,12.20
2023-05-15T18:09:39.433Z,8.00
2023-05-15T18:12:07.209Z,5.60
2023-05-15T18:14:35.852Z,10.60
2023-05-15T18:17:03.452Z,9.70
2023-05-15T18:19:31.036Z,8.50
2023-05-15T18:22:02.393Z,8.70
2023-05-15T18:24:30.313Z,12.60
2023-05-15T18:26:57.721Z,16.50
2023-05-15T18:29:25.817Z,24.80
2023-05-15T18:31:53.339Z,28.40
2023-05-15T18:34:20.951Z,24.30
2023-05-15T18:36:51.664Z,18.50
2023-05-15T18:39:19.180Z,14.70
2023-05-15T18:41:46.648Z,19.60
2023-05-15T18:44:14.055Z,15.80
2023-05-15T18:46:41.643Z,16.20
2023-05-15T18:49:09.244Z,11.30
2023-05-15T18:51:37.067Z,15.50
2023-05-15T18:54:04.502Z,10.90
2023-05-15T18:56:32.454Z,15.00
2023-05-15T18:58:59.978Z,10.50
2023-05-15T19:01:27.724Z,8.40
2023-05-15T19:03:55.280Z,13.20
2023-05-15T19:06:22.988Z,9.80
2023-05-15T19:08:51.115Z,11.80
2023-05-15T19:11:19.028Z,19.10
2023-05-15T19:13:46.604Z,20.70
2023-05-15T19:16:14.526Z,22.70
2023-05-15T19:18:44.202Z,16.20
2023-05-15T19:21:11.602Z,14.90
2023-05-15T19:23:39.098Z,13.20
2023-05-15T19:26:06.682Z,12.40
2023-05-15T19:28:34.396Z,13.20
2023-05-15T19:31:01.847Z,14.50
2023-05-15T19:33:29.782Z,13.70
2023-05-15T19:35:57.330Z,16.60
2023-05-15T19:38:25.097Z,18.20
2023-05-15T19:40:52.772Z,13.50
2023-05-15T19:43:20.143Z,13.40
2023-05-15T19:45:47.666Z,9.00
2023-05-15T19:48:15.108Z,9.70
2023-05-15T19:50:42.478Z,12.10
2023-05-15T19:53:11.734Z,10.70
2023-05-15T19:55:39.401Z,13.20
2023-05-15T19:58:06.773Z,16.70
2023-05-15T20:00:34.542Z,7.40
2023-05-15T20:03:02.178Z,9.60
2023-05-15T20:05:30.021Z,7.10
2023-05-15T20:07:57.601Z,8.40
2023-05-15T20:10:25.246Z,10.20
2023-05-15T20:12:53.175Z,9.00
2023-05-15T20:15:20.569Z,9.10
2023-05-15T20:17:48.021Z,10.80
2023-05-15T20:20:16.378Z,10.90
2023-05-15T20:22:44.176Z,10.00
2023-05-15T20:25:11.567Z,9.40
2023-05-15T20:27:39.144Z,9.50
2023-05-15T20:30:08.294Z,11.40
2023-05-15T20:32:36.647Z,9.70
2023-05-15T20:35:04.784Z,10.40
2023-05-15T20:37:32.979Z,16.10
2023-05-15T20:40:00.500Z,14.60
2023-05-15T20:42:28.766Z,12.20
2023-05-15T20:44:56.335Z,13.40
2023-05-15T20:47:23.901Z,16.40
2023-05-15T20:49:51.795Z,18.60
2023-05-15T20:52:20.467Z,20.80
2023-05-15T20:54:48.444Z,20.40
2023-05-15T20:57:15.893Z,24.30
2023-05-15T20:59:43.654Z,19.00
2023-05-15T21:02:11.062Z,19.20
2023-05-15T21:04:39.036Z,14.10
2023-05-15T21:07:06.844Z,14.90
2023-05-15T21:09:34.394Z,11.20
2023-05-15T21:12:03.484Z,12.80
2023-05-15T21:14:31.479Z,11.90
2023-05-15T21:16:59.085Z,16.60
2023-05-15T21:19:26.568Z,22.70
2023-05-15T21:21:54.092Z,19.60
2023-05-15T21:24:22.585Z,20.90
2023-05-15T21:26:50.186Z,14.10
2023-05-15T21:29:17.614Z,16.40
2023-05-15T21:31:45.222Z,10.70
2023-05-15T21:34:12.775Z,11.80
2023-05-15T21:36:40.430Z,11.60
2023-05-15T21:39:09.211Z,10.00
2023-05-15T21:41:36.883Z,8.40
2023-05-15T21:44:04.448Z,7.10
2023-05-15T21:46:32.086Z,8.20
2023-05-15T21:49:00.764Z,6.70
2023-05-15T21:51:28.600Z,8.90
2023-05-15T21:53:56.641Z,8.70
2023-05-15T21:56:24.213Z,6.00
2023-05-15T21:58:54.853Z,6.00
2023-05-15T22:01:22.371Z,10.20
2023-05-15T22:03:50.477Z,7.40
2023-05-15T22:06:18.299Z,6.10
2023-05-15T22:08:45.822Z,10.70
2023-05-15T22:11:13.728Z,7.50
2023-05-15T22:13:41.276Z,6.80
2023-05-15T22:16:09.204Z,7.80
2023-05-15T22:18:37.481Z,7.50
2023-05-15T22:21:05.414Z,6.40
2023-05-15T22:23:32.938Z,8.30
2023-05-15T22:26:00.821Z,6.70
2023-05-15T22:28:29.356Z,5.00
2023-05-15T22:30:56.882Z,5.20
2023-05-15T22:33:24.692Z,8.60
2023-05-15T22:35:52.932Z,6.70
2023-05-15T22:38:20.646Z,8.10
2023-05-15T22:40:50.650Z,7.20
2023-05-15T22:43:18.270Z,9.00
2023-05-15T22:45:45.794Z,7.40
2023-05-15T22:48:15.059Z,8.50
2023-05-15T22:50:43.708Z,7.20
2023-05-15T22:53:11.433Z,6.80
2023-05-15T22:55:39.018Z,5.70
2023-05-15T22:58:06.522Z,8.80
2023-05-15T23:00:34.170Z,10.10
2023-05-15T23:03:01.872Z,7.60
2023-05-15T23:05:30.988Z,6.30
2023-05-15T23:07:58.992Z,6.60
2023-05-15T23:10:26.878Z,7.90
2023-05-15T23:12:54.690Z,7.90
2023-05-15T23:15:22.413Z,6.50
2023-05-15T23:17:50.281Z,8.70
2023-05-15T23:20:18.234Z,8.60
2023-05-15T23:22:45.734Z,12.30
2023-05-15T23:25:13.519Z,10.00
2023-05-15T23:27:41.174Z,11.20
2023-05-15T23:30:09.683Z,15.80
2023-05-15T23:32:37.759Z,16.10
2023-05-15T23:35:06.040Z,17.70
2023-05-15T23:37:33.698Z,16.20
2023-05-15T23:40:01.726Z,19.50
2023-05-15T23:42:30.354Z,13.40
2023-05-15T23:44:57.794Z,15.80
2023-05-15T23:47:25.566Z,12.70
2023-05-15T23:49:53.132Z,12.60
2023-05-15T23:52:20.577Z,13.80
2023-05-15T23:54:48.781Z,15.40
2023-05-15T23:57:16.798Z,14.00
2023-05-15T23:59:44.367Z,15.30
